Terminal Aerodrome Forecast
Issued by NWS Quad Cities IA IL

Home | Current Version | Previous Version | Text Only | Print | Product List | Glossary On
Versions: 1 2 3 4 5 6 7 8 9 10 11 12 13 14 15 16 17 18 19 20 21 22 23 24
000
FTUS43 KDVN 270820 AAD
TAFDBQ
TAF AMD
KDBQ 270820Z 2708/2806 31012KT 6SM -RA OVC010
      TEMPO 2708/2711 5SM BR BKN008
     FM271200 32013KT P6SM BKN020
     FM272100 27012G19KT P6SM SCT035
     FM280000 28008KT P6SM SCT070=

USA.gov is the U.S. government's official web portal to all federal, state and local government web resources and services.